sensor_id;sensor_type;location;lat;lon;timestamp;P1;durP1;ratioP1;P2;durP2;ratioP2
50126;SDS011;36024;47.974;16.398;2023-08-21T00:02:19;14.90;;;13.70;;
50126;SDS011;36024;47.974;16.398;2023-08-21T00:04:45;14.52;;;13.23;;
50126;SDS011;36024;47.974;16.398;2023-08-21T00:07:13;14.48;;;13.35;;
50126;SDS011;36024;47.974;16.398;2023-08-21T00:09:41;14.23;;;13.02;;
50126;SDS011;36024;47.974;16.398;2023-08-21T00:12:09;14.57;;;13.45;;
50126;SDS011;36024;47.974;16.398;2023-08-21T00:14:36;14.23;;;13.15;;
50126;SDS011;36024;47.974;16.398;2023-08-21T00:17:04;14.88;;;13.50;;
50126;SDS011;36024;47.974;16.398;2023-08-21T00:19:32;14.88;;;13.60;;
50126;SDS011;36024;47.974;16.398;2023-08-21T00:22:00;14.32;;;13.23;;
50126;SDS011;36024;47.974;16.398;2023-08-21T00:24:28;14.50;;;13.38;;
50126;SDS011;36024;47.974;16.398;2023-08-21T00:26:57;14.63;;;13.43;;
50126;SDS011;36024;47.974;16.398;2023-08-21T00:29:24;14.00;;;12.95;;
50126;SDS011;36024;47.974;16.398;2023-08-21T00:31:52;14.30;;;13.23;;
50126;SDS011;36024;47.974;16.398;2023-08-21T00:34:21;14.35;;;13.13;;
50126;SDS011;36024;47.974;16.398;2023-08-21T00:36:48;15.40;;;14.07;;
50126;SDS011;36024;47.974;16.398;2023-08-21T00:39:16;14.27;;;13.27;;
50126;SDS011;36024;47.974;16.398;2023-08-21T00:41:44;14.63;;;13.43;;
50126;SDS011;36024;47.974;16.398;2023-08-21T00:44:11;15.00;;;13.80;;
50126;SDS011;36024;47.974;16.398;2023-08-21T00:46:39;16.27;;;13.57;;
50126;SDS011;36024;47.974;16.398;2023-08-21T00:49:08;14.52;;;13.43;;
50126;SDS011;36024;47.974;16.398;2023-08-21T00:51:36;14.77;;;13.48;;
50126;SDS011;36024;47.974;16.398;2023-08-21T00:54:04;14.45;;;13.25;;
50126;SDS011;36024;47.974;16.398;2023-08-21T00:56:32;14.48;;;13.38;;
50126;SDS011;36024;47.974;16.398;2023-08-21T00:59:01;14.32;;;13.23;;
50126;SDS011;36024;47.974;16.398;2023-08-21T01:01:28;15.02;;;13.65;;
50126;SDS011;36024;47.974;16.398;2023-08-21T01:03:55;14.93;;;13.63;;
50126;SDS011;36024;47.974;16.398;2023-08-21T01:06:23;14.13;;;13.00;;
50126;SDS011;36024;47.974;16.398;2023-08-21T01:08:57;14.07;;;12.98;;
50126;SDS011;36024;47.974;16.398;2023-08-21T01:11:35;15.85;;;14.32;;
50126;SDS011;36024;47.974;16.398;2023-08-21T01:14:16;15.32;;;14.13;;
50126;SDS011;36024;47.974;16.398;2023-08-21T01:17:04;14.35;;;13.25;;
50126;SDS011;36024;47.974;16.398;2023-08-21T01:19:37;15.30;;;14.10;;
50126;SDS011;36024;47.974;16.398;2023-08-21T01:22:08;15.13;;;13.75;;
50126;SDS011;36024;47.974;16.398;2023-08-21T01:24:36;14.93;;;13.82;;
50126;SDS011;36024;47.974;16.398;2023-08-21T01:27:03;14.80;;;13.50;;
50126;SDS011;36024;47.974;16.398;2023-08-21T01:29:32;15.15;;;13.95;;
50126;SDS011;36024;47.974;16.398;2023-08-21T01:35:02;15.07;;;13.88;;
50126;SDS011;36024;47.974;16.398;2023-08-21T01:37:30;14.85;;;13.52;;
50126;SDS011;36024;47.974;16.398;2023-08-21T01:39:58;14.73;;;13.52;;
50126;SDS011;36024;47.974;16.398;2023-08-21T01:42:27;14.63;;;13.35;;
50126;SDS011;36024;47.974;16.398;2023-08-21T01:44:54;15.07;;;13.88;;
50126;SDS011;36024;47.974;16.398;2023-08-21T01:47:22;14.73;;;13.52;;
50126;SDS011;36024;47.974;16.398;2023-08-21T01:49:50;15.05;;;13.88;;
50126;SDS011;36024;47.974;16.398;2023-08-21T01:52:21;15.02;;;13.82;;
50126;SDS011;36024;47.974;16.398;2023-08-21T01:54:49;15.25;;;13.88;;
50126;SDS011;36024;47.974;16.398;2023-08-21T01:57:17;15.27;;;13.95;;
50126;SDS011;36024;47.974;16.398;2023-08-21T01:59:45;15.25;;;13.93;;
50126;SDS011;36024;47.974;16.398;2023-08-21T02:02:12;14.95;;;13.57;;
50126;SDS011;36024;47.974;16.398;2023-08-21T02:04:40;15.57;;;14.30;;
50126;SDS011;36024;47.974;16.398;2023-08-21T02:07:08;15.00;;;13.80;;
50126;SDS011;36024;47.974;16.398;2023-08-21T02:09:35;14.77;;;13.68;;
50126;SDS011;36024;47.974;16.398;2023-08-21T02:12:03;14.90;;;13.50;;
50126;SDS011;36024;47.974;16.398;2023-08-21T02:14:31;15.18;;;14.07;;
50126;SDS011;36024;47.974;16.398;2023-08-21T02:16:58;15.38;;;14.18;;
50126;SDS011;36024;47.974;16.398;2023-08-21T02:19:26;14.88;;;13.68;;
50126;SDS011;36024;47.974;16.398;2023-08-21T02:21:57;15.32;;;13.85;;
50126;SDS011;36024;47.974;16.398;2023-08-21T02:24:26;14.55;;;13.35;;
50126;SDS011;36024;47.974;16.398;2023-08-21T02:26:54;15.48;;;14.38;;
50126;SDS011;36024;47.974;16.398;2023-08-21T02:29:22;15.25;;;13.95;;
50126;SDS011;36024;47.974;16.398;2023-08-21T02:31:50;14.90;;;13.65;;
50126;SDS011;36024;47.974;16.398;2023-08-21T02:34:17;15.93;;;14.40;;
50126;SDS011;36024;47.974;16.398;2023-08-21T02:36:45;14.45;;;13.35;;
50126;SDS011;36024;47.974;16.398;2023-08-21T02:39:13;14.32;;;13.23;;
50126;SDS011;36024;47.974;16.398;2023-08-21T02:41:41;15.05;;;13.77;;
50126;SDS011;36024;47.974;16.398;2023-08-21T02:44:09;15.30;;;14.10;;
50126;SDS011;36024;47.974;16.398;2023-08-21T02:46:36;14.95;;;13.65;;
50126;SDS011;36024;47.974;16.398;2023-08-21T02:49:05;14.63;;;13.52;;
50126;SDS011;36024;47.974;16.398;2023-08-21T02:51:33;15.23;;;14.02;;
50126;SDS011;36024;47.974;16.398;2023-08-21T02:54:00;15.18;;;13.98;;
50126;SDS011;36024;47.974;16.398;2023-08-21T02:56:28;14.98;;;13.82;;
50126;SDS011;36024;47.974;16.398;2023-08-21T02:58:56;15.77;;;14.48;;
50126;SDS011;36024;47.974;16.398;2023-08-21T03:01:23;15.93;;;14.52;;
50126;SDS011;36024;47.974;16.398;2023-08-21T03:03:51;15.70;;;14.32;;
50126;SDS011;36024;47.974;16.398;2023-08-21T03:06:19;15.77;;;14.52;;
50126;SDS011;36024;47.974;16.398;2023-08-21T03:08:48;15.60;;;14.43;;
50126;SDS011;36024;47.974;16.398;2023-08-21T03:11:17;16.25;;;14.98;;
50126;SDS011;36024;47.974;16.398;2023-08-21T03:13:45;16.48;;;15.18;;
50126;SDS011;36024;47.974;16.398;2023-08-21T03:16:13;15.83;;;14.67;;
50126;SDS011;36024;47.974;16.398;2023-08-21T03:18:54;16.30;;;14.90;;
50126;SDS011;36024;47.974;16.398;2023-08-21T03:21:28;16.33;;;15.05;;
50126;SDS011;36024;47.974;16.398;2023-08-21T03:23:58;16.47;;;15.17;;
50126;SDS011;36024;47.974;16.398;2023-08-21T03:26:31;17.07;;;15.40;;
50126;SDS011;36024;47.974;16.398;2023-08-21T03:28:59;16.17;;;14.73;;
50126;SDS011;36024;47.974;16.398;2023-08-21T03:31:26;15.90;;;14.60;;
50126;SDS011;36024;47.974;16.398;2023-08-21T03:33:54;16.93;;;15.63;;
50126;SDS011;36024;47.974;16.398;2023-08-21T03:36:22;16.05;;;14.65;;
50126;SDS011;36024;47.974;16.398;2023-08-21T03:39:01;16.37;;;15.10;;
50126;SDS011;36024;47.974;16.398;2023-08-21T03:41:36;16.13;;;14.93;;
50126;SDS011;36024;47.974;16.398;2023-08-21T03:44:05;15.85;;;14.55;;
50126;SDS011;36024;47.974;16.398;2023-08-21T03:46:32;16.48;;;15.18;;
50126;SDS011;36024;47.974;16.398;2023-08-21T03:49:00;15.97;;;14.53;;
50126;SDS011;36024;47.974;16.398;2023-08-21T03:51:27;15.98;;;14.70;;
50126;SDS011;36024;47.974;16.398;2023-08-21T03:53:56;16.17;;;14.73;;
50126;SDS011;36024;47.974;16.398;2023-08-21T03:56:24;16.30;;;14.90;;
50126;SDS011;36024;47.974;16.398;2023-08-21T03:58:53;15.83;;;14.53;;
50126;SDS011;36024;47.974;16.398;2023-08-21T04:01:20;15.70;;;14.40;;
50126;SDS011;36024;47.974;16.398;2023-08-21T04:03:47;16.73;;;15.30;;
50126;SDS011;36024;47.974;16.398;2023-08-21T04:06:15;16.93;;;15.60;;
50126;SDS011;36024;47.974;16.398;2023-08-21T04:08:42;16.53;;;15.10;;
50126;SDS011;36024;47.974;16.398;2023-08-21T04:11:11;15.77;;;14.47;;
50126;SDS011;36024;47.974;16.398;2023-08-21T04:13:38;17.20;;;15.80;;
50126;SDS011;36024;47.974;16.398;2023-08-21T04:16:05;17.40;;;15.93;;
50126;SDS011;36024;47.974;16.398;2023-08-21T04:18:33;16.30;;;15.10;;
50126;SDS011;36024;47.974;16.398;2023-08-21T04:21:08;17.57;;;16.00;;
50126;SDS011;36024;47.974;16.398;2023-08-21T04:23:36;16.10;;;14.80;;
50126;SDS011;36024;47.974;16.398;2023-08-21T04:26:04;16.67;;;15.27;;
50126;SDS011;36024;47.974;16.398;2023-08-21T04:28:33;17.50;;;16.10;;
50126;SDS011;36024;47.974;16.398;2023-08-21T04:31:04;16.80;;;15.33;;
50126;SDS011;36024;47.974;16.398;2023-08-21T04:33:35;16.80;;;15.30;;
50126;SDS011;36024;47.974;16.398;2023-08-21T04:36:05;17.30;;;15.80;;
50126;SDS011;36024;47.974;16.398;2023-08-21T04:38:33;16.97;;;15.63;;
50126;SDS011;36024;47.974;16.398;2023-08-21T04:41:07;16.73;;;15.37;;
50126;SDS011;36024;47.974;16.398;2023-08-21T04:43:38;17.10;;;15.65;;
50126;SDS011;36024;47.974;16.398;2023-08-21T04:46:07;17.03;;;15.53;;
50126;SDS011;36024;47.974;16.398;2023-08-21T04:48:37;17.00;;;15.65;;
50126;SDS011;36024;47.974;16.398;2023-08-21T04:51:04;16.43;;;15.17;;
50126;SDS011;36024;47.974;16.398;2023-08-21T04:53:33;15.80;;;14.30;;
50126;SDS011;36024;47.974;16.398;2023-08-21T04:56:01;15.95;;;14.75;;
50126;SDS011;36024;47.974;16.398;2023-08-21T04:58:31;15.30;;;13.90;;
50126;SDS011;36024;47.974;16.398;2023-08-21T05:00:59;16.52;;;14.90;;
50126;SDS011;36024;47.974;16.398;2023-08-21T05:03:27;14.98;;;13.73;;
50126;SDS011;36024;47.974;16.398;2023-08-21T05:05:56;16.30;;;14.90;;
50126;SDS011;36024;47.974;16.398;2023-08-21T05:08:24;17.40;;;15.90;;
50126;SDS011;36024;47.974;16.398;2023-08-21T05:10:56;16.13;;;14.77;;
50126;SDS011;36024;47.974;16.398;2023-08-21T05:13:26;15.63;;;14.32;;
50126;SDS011;36024;47.974;16.398;2023-08-21T05:15:54;16.38;;;14.95;;
50126;SDS011;36024;47.974;16.398;2023-08-21T05:18:24;15.75;;;14.35;;
50126;SDS011;36024;47.974;16.398;2023-08-21T05:20:53;15.20;;;13.82;;
50126;SDS011;36024;47.974;16.398;2023-08-21T05:23:22;16.17;;;14.70;;
50126;SDS011;36024;47.974;16.398;2023-08-21T05:25:54;15.73;;;14.23;;
50126;SDS011;36024;47.974;16.398;2023-08-21T05:28:26;15.30;;;14.02;;
50126;SDS011;36024;47.974;16.398;2023-08-21T05:30:53;15.68;;;14.27;;
50126;SDS011;36024;47.974;16.398;2023-08-21T05:33:21;15.02;;;13.73;;
50126;SDS011;36024;47.974;16.398;2023-08-21T05:35:49;15.07;;;13.73;;
50126;SDS011;36024;47.974;16.398;2023-08-21T05:38:18;16.27;;;14.77;;
50126;SDS011;36024;47.974;16.398;2023-08-21T05:40:46;15.23;;;13.95;;
50126;SDS011;36024;47.974;16.398;2023-08-21T05:43:13;16.13;;;14.63;;
50126;SDS011;36024;47.974;16.398;2023-08-21T05:45:42;15.43;;;14.05;;
50126;SDS011;36024;47.974;16.398;2023-08-21T05:48:11;14.98;;;13.55;;
50126;SDS011;36024;47.974;16.398;2023-08-21T05:50:39;14.00;;;12.90;;
50126;SDS011;36024;47.974;16.398;2023-08-21T05:53:08;14.35;;;13.23;;
50126;SDS011;36024;47.974;16.398;2023-08-21T05:55:38;14.27;;;13.02;;
50126;SDS011;36024;47.974;16.398;2023-08-21T05:58:09;14.80;;;13.40;;
50126;SDS011;36024;47.974;16.398;2023-08-21T06:00:38;14.60;;;13.40;;
50126;SDS011;36024;47.974;16.398;2023-08-21T06:03:06;13.93;;;12.57;;
50126;SDS011;36024;47.974;16.398;2023-08-21T06:05:53;14.52;;;13.10;;
50126;SDS011;36024;47.974;16.398;2023-08-21T06:08:22;14.32;;;13.10;;
50126;SDS011;36024;47.974;16.398;2023-08-21T06:10:52;14.05;;;12.77;;
50126;SDS011;36024;47.974;16.398;2023-08-21T06:13:20;13.73;;;12.52;;
50126;SDS011;36024;47.974;16.398;2023-08-21T06:15:50;13.93;;;12.70;;
50126;SDS011;36024;47.974;16.398;2023-08-21T06:18:19;13.23;;;12.20;;
50126;SDS011;36024;47.974;16.398;2023-08-21T06:20:48;13.65;;;12.52;;
50126;SDS011;36024;47.974;16.398;2023-08-21T06:23:21;13.52;;;12.23;;
50126;SDS011;36024;47.974;16.398;2023-08-21T06:25:49;13.02;;;12.02;;
50126;SDS011;36024;47.974;16.398;2023-08-21T06:28:19;14.35;;;13.00;;
50126;SDS011;36024;47.974;16.398;2023-08-21T06:30:46;13.50;;;12.25;;
50126;SDS011;36024;47.974;16.398;2023-08-21T06:33:14;14.15;;;12.70;;
50126;SDS011;36024;47.974;16.398;2023-08-21T06:35:42;13.77;;;12.45;;
50126;SDS011;36024;47.974;16.398;2023-08-21T06:38:10;13.13;;;11.90;;
50126;SDS011;36024;47.974;16.398;2023-08-21T06:40:38;13.45;;;12.25;;
50126;SDS011;36024;47.974;16.398;2023-08-21T06:43:05;13.90;;;12.55;;
50126;SDS011;36024;47.974;16.398;2023-08-21T06:45:33;13.82;;;12.43;;
50126;SDS011;36024;47.974;16.398;2023-08-21T06:48:03;13.60;;;12.30;;
50126;SDS011;36024;47.974;16.398;2023-08-21T06:50:32;14.32;;;13.10;;
50126;SDS011;36024;47.974;16.398;2023-08-21T06:53:01;14.05;;;12.75;;
50126;SDS011;36024;47.974;16.398;2023-08-21T06:55:29;13.18;;;11.93;;
50126;SDS011;36024;47.974;16.398;2023-08-21T06:57:56;13.40;;;12.10;;
50126;SDS011;36024;47.974;16.398;2023-08-21T07:00:23;13.45;;;12.18;;
50126;SDS011;36024;47.974;16.398;2023-08-21T07:02:50;13.60;;;12.30;;
50126;SDS011;36024;47.974;16.398;2023-08-21T07:05:18;13.95;;;12.68;;
50126;SDS011;36024;47.974;16.398;2023-08-21T07:07:45;13.68;;;12.38;;
50126;SDS011;36024;47.974;16.398;2023-08-21T07:10:12;13.23;;;12.02;;
50126;SDS011;36024;47.974;16.398;2023-08-21T07:12:40;13.80;;;12.43;;
50126;SDS011;36024;47.974;16.398;2023-08-21T07:15:08;13.15;;;11.85;;
50126;SDS011;36024;47.974;16.398;2023-08-21T07:17:37;13.93;;;12.18;;
50126;SDS011;36024;47.974;16.398;2023-08-21T07:20:07;13.85;;;12.32;;
50126;SDS011;36024;47.974;16.398;2023-08-21T07:22:34;14.13;;;12.48;;
50126;SDS011;36024;47.974;16.398;2023-08-21T07:25:03;18.10;;;13.63;;
50126;SDS011;36024;47.974;16.398;2023-08-21T07:27:32;15.55;;;13.27;;
50126;SDS011;36024;47.974;16.398;2023-08-21T07:30:00;17.55;;;12.50;;
50126;SDS011;36024;47.974;16.398;2023-08-21T07:32:27;18.30;;;12.55;;
50126;SDS011;36024;47.974;16.398;2023-08-21T07:34:55;22.15;;;12.00;;
50126;SDS011;36024;47.974;16.398;2023-08-21T07:37:22;21.35;;;12.85;;
50126;SDS011;36024;47.974;16.398;2023-08-21T07:39:50;15.57;;;12.50;;
50126;SDS011;36024;47.974;16.398;2023-08-21T07:42:19;17.25;;;12.63;;
50126;SDS011;36024;47.974;16.398;2023-08-21T07:44:47;16.55;;;11.63;;
50126;SDS011;36024;47.974;16.398;2023-08-21T07:47:15;13.50;;;11.65;;
50126;SDS011;36024;47.974;16.398;2023-08-21T07:49:42;13.98;;;11.65;;
50126;SDS011;36024;47.974;16.398;2023-08-21T07:52:10;13.50;;;12.07;;
50126;SDS011;36024;47.974;16.398;2023-08-21T07:54:37;13.15;;;11.88;;
50126;SDS011;36024;47.974;16.398;2023-08-21T07:57:05;14.73;;;12.18;;
50126;SDS011;36024;47.974;16.398;2023-08-21T07:59:32;13.05;;;11.57;;
50126;SDS011;36024;47.974;16.398;2023-08-21T08:02:01;15.20;;;12.13;;
50126;SDS011;36024;47.974;16.398;2023-08-21T08:04:30;13.07;;;11.38;;
50126;SDS011;36024;47.974;16.398;2023-08-21T08:06:58;11.30;;;10.15;;
50126;SDS011;36024;47.974;16.398;2023-08-21T08:09:25;34.35;;;13.77;;
50126;SDS011;36024;47.974;16.398;2023-08-21T08:11:52;33.72;;;13.40;;
50126;SDS011;36024;47.974;16.398;2023-08-21T08:14:20;24.00;;;12.68;;
50126;SDS011;36024;47.974;16.398;2023-08-21T08:16:47;30.25;;;13.18;;
50126;SDS011;36024;47.974;16.398;2023-08-21T08:19:15;16.40;;;11.93;;
50126;SDS011;36024;47.974;16.398;2023-08-21T08:21:42;16.98;;;12.30;;
50126;SDS011;36024;47.974;16.398;2023-08-21T08:24:10;14.73;;;12.35;;
50126;SDS011;36024;47.974;16.398;2023-08-21T08:26:37;13.95;;;12.20;;
50126;SDS011;36024;47.974;16.398;2023-08-21T08:29:07;13.48;;;12.00;;
50126;SDS011;36024;47.974;16.398;2023-08-21T08:31:35;13.35;;;12.02;;
50126;SDS011;36024;47.974;16.398;2023-08-21T08:34:03;16.27;;;12.07;;
50126;SDS011;36024;47.974;16.398;2023-08-21T08:36:30;15.10;;;12.15;;
50126;SDS011;36024;47.974;16.398;2023-08-21T08:38:58;12.98;;;11.80;;
50126;SDS011;36024;47.974;16.398;2023-08-21T08:41:25;13.02;;;11.82;;
50126;SDS011;36024;47.974;16.398;2023-08-21T08:43:59;16.00;;;11.75;;
50126;SDS011;36024;47.974;16.398;2023-08-21T08:46:29;26.75;;;12.38;;
50126;SDS011;36024;47.974;16.398;2023-08-21T08:48:58;16.15;;;11.80;;
50126;SDS011;36024;47.974;16.398;2023-08-21T08:51:28;18.80;;;12.75;;
50126;SDS011;36024;47.974;16.398;2023-08-21T08:53:58;16.42;;;12.85;;
50126;SDS011;36024;47.974;16.398;2023-08-21T08:56:26;14.50;;;12.45;;
50126;SDS011;36024;47.974;16.398;2023-08-21T08:58:54;13.40;;;12.10;;
50126;SDS011;36024;47.974;16.398;2023-08-21T09:01:22;18.45;;;12.52;;
50126;SDS011;36024;47.974;16.398;2023-08-21T09:03:51;32.45;;;12.93;;
50126;SDS011;36024;47.974;16.398;2023-08-21T09:06:19;15.95;;;11.85;;
50126;SDS011;36024;47.974;16.398;2023-08-21T09:08:53;12.25;;;10.82;;
50126;SDS011;36024;47.974;16.398;2023-08-21T09:11:24;12.65;;;11.35;;
50126;SDS011;36024;47.974;16.398;2023-08-21T09:13:53;13.55;;;12.02;;
50126;SDS011;36024;47.974;16.398;2023-08-21T09:16:24;13.30;;;12.10;;
50126;SDS011;36024;47.974;16.398;2023-08-21T09:18:53;13.48;;;12.15;;
50126;SDS011;36024;47.974;16.398;2023-08-21T09:21:22;13.35;;;11.73;;
50126;SDS011;36024;47.974;16.398;2023-08-21T09:23:56;13.68;;;11.50;;
50126;SDS011;36024;47.974;16.398;2023-08-21T09:26:26;12.23;;;11.07;;
50126;SDS011;36024;47.974;16.398;2023-08-21T09:28:54;11.80;;;10.70;;
50126;SDS011;36024;47.974;16.398;2023-08-21T09:31:22;11.25;;;10.27;;
50126;SDS011;36024;47.974;16.398;2023-08-21T09:33:55;12.85;;;11.57;;
50126;SDS011;36024;47.974;16.398;2023-08-21T09:36:24;12.95;;;11.55;;
50126;SDS011;36024;47.974;16.398;2023-08-21T09:38:52;12.70;;;11.43;;
50126;SDS011;36024;47.974;16.398;2023-08-21T09:41:22;12.90;;;10.85;;
50126;SDS011;36024;47.974;16.398;2023-08-21T09:43:50;12.02;;;10.88;;
50126;SDS011;36024;47.974;16.398;2023-08-21T09:46:24;23.08;;;11.75;;
50126;SDS011;36024;47.974;16.398;2023-08-21T09:48:53;13.23;;;10.50;;
50126;SDS011;36024;47.974;16.398;2023-08-21T09:51:21;10.73;;;9.82;;
50126;SDS011;36024;47.974;16.398;2023-08-21T09:53:48;11.07;;;10.15;;
50126;SDS011;36024;47.974;16.398;2023-08-21T09:56:19;11.30;;;10.15;;
50126;SDS011;36024;47.974;16.398;2023-08-21T09:58:47;10.85;;;9.98;;
50126;SDS011;36024;47.974;16.398;2023-08-21T10:01:16;10.65;;;9.75;;
50126;SDS011;36024;47.974;16.398;2023-08-21T10:03:45;10.68;;;9.77;;
50126;SDS011;36024;47.974;16.398;2023-08-21T10:06:15;10.43;;;9.60;;
50126;SDS011;36024;47.974;16.398;2023-08-21T10:08:48;9.65;;;8.75;;
50126;SDS011;36024;47.974;16.398;2023-08-21T10:11:22;9.48;;;8.65;;
50126;SDS011;36024;47.974;16.398;2023-08-21T10:13:52;9.93;;;9.15;;
50126;SDS011;36024;47.974;16.398;2023-08-21T10:16:20;10.00;;;9.20;;
50126;SDS011;36024;47.974;16.398;2023-08-21T10:18:48;9.20;;;8.35;;
50126;SDS011;36024;47.974;16.398;2023-08-21T10:21:20;8.93;;;8.23;;
50126;SDS011;36024;47.974;16.398;2023-08-21T10:23:51;8.77;;;8.10;;
50126;SDS011;36024;47.974;16.398;2023-08-21T10:26:22;8.65;;;7.78;;
50126;SDS011;36024;47.974;16.398;2023-08-21T10:34:07;8.15;;;7.55;;
50126;SDS011;36024;47.974;16.398;2023-08-21T10:42:01;7.55;;;7.00;;
50126;SDS011;36024;47.974;16.398;2023-08-21T10:44:37;8.15;;;7.55;;
50126;SDS011;36024;47.974;16.398;2023-08-21T10:47:22;7.70;;;7.10;;
50126;SDS011;36024;47.974;16.398;2023-08-21T10:49:58;8.75;;;7.95;;
50126;SDS011;36024;47.974;16.398;2023-08-21T10:52:28;7.70;;;7.07;;
50126;SDS011;36024;47.974;16.398;2023-08-21T10:54:57;6.82;;;6.32;;
50126;SDS011;36024;47.974;16.398;2023-08-21T10:57:26;8.30;;;7.05;;
50126;SDS011;36024;47.974;16.398;2023-08-21T11:00:02;7.35;;;6.85;;
50126;SDS011;36024;47.974;16.398;2023-08-21T11:02:32;8.57;;;7.72;;
50126;SDS011;36024;47.974;16.398;2023-08-21T11:05:00;8.38;;;7.68;;
50126;SDS011;36024;47.974;16.398;2023-08-21T11:07:28;8.52;;;7.80;;
50126;SDS011;36024;47.974;16.398;2023-08-21T11:09:58;8.73;;;7.90;;
50126;SDS011;36024;47.974;16.398;2023-08-21T11:12:27;8.38;;;7.57;;
50126;SDS011;36024;47.974;16.398;2023-08-21T11:14:56;8.30;;;7.50;;
50126;SDS011;36024;47.974;16.398;2023-08-21T11:17:23;8.18;;;7.57;;
50126;SDS011;36024;47.974;16.398;2023-08-21T11:19:52;8.57;;;7.97;;
50126;SDS011;36024;47.974;16.398;2023-08-21T11:22:20;8.00;;;7.40;;
50126;SDS011;36024;47.974;16.398;2023-08-21T11:24:48;7.50;;;6.90;;
50126;SDS011;36024;47.974;16.398;2023-08-21T11:27:20;8.35;;;7.53;;
50126;SDS011;36024;47.974;16.398;2023-08-21T11:29:51;7.63;;;6.93;;
50126;SDS011;36024;47.974;16.398;2023-08-21T11:32:21;7.82;;;7.22;;
50126;SDS011;36024;47.974;16.398;2023-08-21T11:34:54;7.03;;;6.45;;
50126;SDS011;36024;47.974;16.398;2023-08-21T11:37:24;6.75;;;6.00;;
50126;SDS011;36024;47.974;16.398;2023-08-21T11:39:53;6.68;;;6.18;;
50126;SDS011;36024;47.974;16.398;2023-08-21T11:42:22;6.85;;;6.30;;
50126;SDS011;36024;47.974;16.398;2023-08-21T11:44:58;7.45;;;6.40;;
50126;SDS011;36024;47.974;16.398;2023-08-21T11:47:32;7.35;;;6.75;;
50126;SDS011;36024;47.974;16.398;2023-08-21T11:50:04;7.35;;;6.65;;
50126;SDS011;36024;47.974;16.398;2023-08-21T11:52:33;6.97;;;6.20;;
50126;SDS011;36024;47.974;16.398;2023-08-21T11:55:06;8.20;;;6.28;;
50126;SDS011;36024;47.974;16.398;2023-08-21T11:57:34;7.30;;;6.60;;
50126;SDS011;36024;47.974;16.398;2023-08-21T12:00:03;6.43;;;5.93;;
50126;SDS011;36024;47.974;16.398;2023-08-21T12:02:33;6.22;;;5.65;;
50126;SDS011;36024;47.974;16.398;2023-08-21T12:05:03;5.97;;;5.57;;
50126;SDS011;36024;47.974;16.398;2023-08-21T12:07:32;6.53;;;5.93;;
50126;SDS011;36024;47.974;16.398;2023-08-21T12:10:00;6.43;;;5.93;;
50126;SDS011;36024;47.974;16.398;2023-08-21T12:12:30;5.97;;;5.47;;
50126;SDS011;36024;47.974;16.398;2023-08-21T12:14:58;5.90;;;5.43;;
50126;SDS011;36024;47.974;16.398;2023-08-21T12:17:27;5.93;;;4.90;;
50126;SDS011;36024;47.974;16.398;2023-08-21T12:19:54;5.07;;;4.50;;
50126;SDS011;36024;47.974;16.398;2023-08-21T12:22:26;4.93;;;4.60;;
50126;SDS011;36024;47.974;16.398;2023-08-21T12:24:55;4.80;;;4.40;;
50126;SDS011;36024;47.974;16.398;2023-08-21T12:27:24;4.28;;;3.95;;
50126;SDS011;36024;47.974;16.398;2023-08-21T12:29:52;4.00;;;3.72;;
50126;SDS011;36024;47.974;16.398;2023-08-21T12:32:19;4.00;;;3.72;;
50126;SDS011;36024;47.974;16.398;2023-08-21T12:34:47;4.57;;;3.50;;
50126;SDS011;36024;47.974;16.398;2023-08-21T12:37:16;3.55;;;3.25;;
50126;SDS011;36024;47.974;16.398;2023-08-21T12:39:44;4.72;;;4.25;;
50126;SDS011;36024;47.974;16.398;2023-08-21T12:42:11;5.05;;;4.55;;
50126;SDS011;36024;47.974;16.398;2023-08-21T12:44:40;5.38;;;4.40;;
50126;SDS011;36024;47.974;16.398;2023-08-21T12:47:08;5.53;;;4.32;;
50126;SDS011;36024;47.974;16.398;2023-08-21T12:49:36;5.57;;;4.93;;
50126;SDS011;36024;47.974;16.398;2023-08-21T12:52:04;5.90;;;5.45;;
50126;SDS011;36024;47.974;16.398;2023-08-21T12:54:36;6.68;;;4.78;;
50126;SDS011;36024;47.974;16.398;2023-08-21T12:57:04;5.72;;;5.05;;
50126;SDS011;36024;47.974;16.398;2023-08-21T12:59:32;5.03;;;4.57;;
50126;SDS011;36024;47.974;16.398;2023-08-21T13:02:01;5.93;;;5.43;;
50126;SDS011;36024;47.974;16.398;2023-08-21T13:04:29;5.80;;;5.20;;
50126;SDS011;36024;47.974;16.398;2023-08-21T13:06:57;5.85;;;5.35;;
50126;SDS011;36024;47.974;16.398;2023-08-21T13:09:25;6.80;;;6.15;;
50126;SDS011;36024;47.974;16.398;2023-08-21T13:11:53;6.53;;;6.03;;
50126;SDS011;36024;47.974;16.398;2023-08-21T13:14:21;5.93;;;5.43;;
50126;SDS011;36024;47.974;16.398;2023-08-21T13:16:48;6.00;;;5.50;;
50126;SDS011;36024;47.974;16.398;2023-08-21T13:19:16;5.65;;;5.20;;
50126;SDS011;36024;47.974;16.398;2023-08-21T13:21:43;6.00;;;5.50;;
50126;SDS011;36024;47.974;16.398;2023-08-21T13:24:11;5.97;;;5.45;;
50126;SDS011;36024;47.974;16.398;2023-08-21T13:26:38;8.20;;;6.97;;
50126;SDS011;36024;47.974;16.398;2023-08-21T13:29:06;6.70;;;6.20;;
50126;SDS011;36024;47.974;16.398;2023-08-21T13:31:37;7.40;;;6.80;;
50126;SDS011;36024;47.974;16.398;2023-08-21T13:34:07;6.82;;;6.22;;
50126;SDS011;36024;47.974;16.398;2023-08-21T13:36:35;6.45;;;6.05;;
50126;SDS011;36024;47.974;16.398;2023-08-21T13:39:07;7.13;;;6.63;;
50126;SDS011;36024;47.974;16.398;2023-08-21T13:41:36;7.47;;;6.97;;
50126;SDS011;36024;47.974;16.398;2023-08-21T13:44:05;7.38;;;6.68;;
50126;SDS011;36024;47.974;16.398;2023-08-21T13:46:35;7.88;;;7.28;;
50126;SDS011;36024;47.974;16.398;2023-08-21T13:49:03;8.77;;;7.95;;
50126;SDS011;36024;47.974;16.398;2023-08-21T13:51:30;7.82;;;7.18;;
50126;SDS011;36024;47.974;16.398;2023-08-21T13:53:57;7.30;;;6.90;;
50126;SDS011;36024;47.974;16.398;2023-08-21T13:56:27;7.85;;;7.15;;
50126;SDS011;36024;47.974;16.398;2023-08-21T13:58:56;7.18;;;6.68;;
50126;SDS011;36024;47.974;16.398;2023-08-21T14:01:25;8.07;;;7.32;;
50126;SDS011;36024;47.974;16.398;2023-08-21T14:03:53;7.25;;;6.65;;
50126;SDS011;36024;47.974;16.398;2023-08-21T14:06:21;7.90;;;6.95;;
50126;SDS011;36024;47.974;16.398;2023-08-21T14:08:48;8.00;;;7.30;;
50126;SDS011;36024;47.974;16.398;2023-08-21T14:11:16;7.53;;;6.93;;
50126;SDS011;36024;47.974;16.398;2023-08-21T14:13:44;7.53;;;7.00;;
50126;SDS011;36024;47.974;16.398;2023-08-21T14:16:12;7.25;;;6.65;;
50126;SDS011;36024;47.974;16.398;2023-08-21T14:18:40;7.30;;;6.63;;
50126;SDS011;36024;47.974;16.398;2023-08-21T14:21:08;7.60;;;6.78;;
50126;SDS011;36024;47.974;16.398;2023-08-21T14:23:35;6.97;;;6.50;;
50126;SDS011;36024;47.974;16.398;2023-08-21T14:26:03;6.68;;;6.07;;
50126;SDS011;36024;47.974;16.398;2023-08-21T14:28:31;6.78;;;6.18;;
50126;SDS011;36024;47.974;16.398;2023-08-21T14:30:59;5.88;;;5.47;;
50126;SDS011;36024;47.974;16.398;2023-08-21T14:33:27;6.05;;;5.32;;
50126;SDS011;36024;47.974;16.398;2023-08-21T14:35:55;5.75;;;5.25;;
50126;SDS011;36024;47.974;16.398;2023-08-21T14:38:24;5.82;;;5.43;;
50126;SDS011;36024;47.974;16.398;2023-08-21T14:40:53;5.57;;;5.07;;